Home > Products > Valid Products > MTR

000
SAUS41 KOKX 292155
MTRMTP
METAR KMTP 292154Z AUTO 16005KT 20/15 A3026 RMK AO1 SLP248 T02000150





000
SAUS41 KOKX 292155
MTRMTP
METAR KMTP 292154Z AUTO 16005KT 20/15 A3026 RMK AO1 SLP248 T02000150





000
SAUS41 KOKX 292152
MTRNYC
METAR KNYC 292151Z AUTO VRB06KT 10SM CLR 23/13 A3025 RMK AO2 SLP234
T02280128





000
SAUS41 KOKX 292055
MTRMTP
METAR KMTP 292054Z AUTO VRB05KT 22/14 A3027 RMK AO1 SLP251 T02170144
58006





000
SAUS41 KOKX 292052
MTRNYC
METAR KNYC 292051Z AUTO VRB04KT 10SM CLR 26/13 A3026 RMK AO2 SLP236
T02560128 58008





000
SAUS41 KOKX 291955
MTRMTP
METAR KMTP 291954Z AUTO 16003KT 23/14 A3028 RMK AO1 SLP253 T02280144





000
SAUS41 KOKX 291955
MTRMTP
METAR KMTP 291954Z AUTO 16003KT 23/14 A3028 RMK AO1 SLP253 T02280144





000
SAUS41 KOKX 291952
MTRNYC
METAR KNYC 291951Z AUTO VRB05KT 10SM CLR 26/13 A3026 RMK AO2 SLP239
T02610128





000
SAUS41 KOKX 291952
MTRNYC
METAR KNYC 291951Z AUTO VRB05KT 10SM CLR 26/13 A3026 RMK AO2 SLP239
T02610128





000
SAUS41 KOKX 291855
MTRMTP
METAR KMTP 291854Z AUTO 15005KT 24/14 A3029 RMK AO1 SLP255 T02390144





000
SAUS41 KOKX 291852
MTRNYC
METAR KNYC 291851Z AUTO VRB03KT 10SM CLR 27/13 A3029 RMK AO2 SLP246
T02720128





000
SAUS41 KOKX 291852
MTRNYC
METAR KNYC 291851Z AUTO VRB03KT 10SM CLR 27/13 A3029 RMK AO2 SLP246
T02720128





000
SAUS41 KOKX 291755
MTRMTP
METAR KMTP 291754Z AUTO 16005KT 24/14 A3029 RMK AO1 SLP257 T02390144
10244 20172 56005





000
SAUS41 KOKX 291752
MTRNYC
METAR KNYC 291751Z AUTO 00000KT 10SM CLR 29/13 A3028 RMK AO2 SLP244
T02890128 10294 20200 58014





000
SAUS41 KOKX 291656
MTRMTP
METAR KMTP 291654Z AUTO VRB03KT 24/14 A3030 RMK AO1 SLP259 T02390144





000
SAUS41 KOKX 291653
MTRNYC
METAR KNYC 291651Z AUTO 00000KT 10SM CLR 28/12 A3029 RMK AO2 SLP248
T02780117





000
SAUS41 KOKX 291555
MTRMTP
METAR KMTP 291554Z AUTO VRB05KT 23/14 A3030 RMK AO1 SLP260 T02330139





000
SAUS41 KOKX 291555
MTRMTP
METAR KMTP 291554Z AUTO VRB05KT 23/14 A3030 RMK AO1 SLP260 T02330139





000
SAUS41 KOKX 291552
MTRNYC
METAR KNYC 291551Z AUTO VRB03KT 10SM CLR 26/12 A3031 RMK AO2 SLP254
T02610117





000
SAUS41 KOKX 291455
MTRMTP
METAR KMTP 291454Z AUTO 06005KT 22/14 A3031 RMK AO1 SLP262 T02220139
51003





000
SAUS41 KOKX 291453
MTRNYC
METAR KNYC 291451Z AUTO 10004KT 10SM CLR 23/12 A3032 RMK AO2 SLP258
T02330122 58001





000
SAUS41 KOKX 291400 COR
MTRMTP
METAR KMTP 291354Z AUTO 01004KT 21/14 A3030 RMK AO1 SLP261 T02110144





000
SAUS41 KOKX 291400 COR
MTRMTP
METAR KMTP 291354Z AUTO 01004KT 21/14 A3030 RMK AO1 SLP261 T02110144





000
SAUS41 KOKX 291356 COR
MTRMTP
METAR KMTP 291354Z AUTO 01004KT 21/14 A3030 RMK AO1 SLP261 T02110144





000
SAUS41 KOKX 291355
MTRMTP
METAR KMTP 291354Z AUTO 01004KT 21/14 A3030 RMK AO1 SLP261 T02110144





000
SAUS41 KOKX 291355
MTRMTP
METAR KMTP 291354Z AUTO 01004KT 21/14 A3030 RMK AO1 SLP261 T02110144





000
SAUS41 KOKX 291352
MTRNYC
METAR KNYC 291351Z AUTO VRB06KT 10SM CLR 22/12 A3033 RMK AO2 SLP260
T02220122





000
SAUS41 KOKX 291352
MTRNYC
METAR KNYC 291351Z AUTO VRB06KT 10SM CLR 22/12 A3033 RMK AO2 SLP260
T02220122





000
SAUS41 KOKX 291255
MTRMTP
METAR KMTP 291254Z AUTO VRB05KT 18/13 A3030 RMK AO1 SLP261 T01830133





000
SAUS41 KOKX 291255
MTRMTP
METAR KMTP 291254Z AUTO VRB05KT 18/13 A3030 RMK AO1 SLP261 T01830133





000
SAUS41 KOKX 291252
MTRNYC
METAR KNYC 291251Z AUTO VRB03KT 10SM CLR 22/12 A3033 RMK AO2 SLP260
T02170122





000
SAUS41 KOKX 291252
MTRNYC
METAR KNYC 291251Z AUTO VRB03KT 10SM CLR 22/12 A3033 RMK AO2 SLP260
T02170122





000
SAUS41 KOKX 291155
MTRMTP
METAR KMTP 291154Z AUTO 01004KT 17/13 A3030 RMK AO1 SLP260 T01720133
10172 20144 53011





000
SAUS41 KOKX 291155
MTRMTP
METAR KMTP 291154Z AUTO 01004KT 17/13 A3030 RMK AO1 SLP260 T01720133
10172 20144 53011





000
SAUS41 KOKX 291152
MTRNYC
METAR KNYC 291151Z AUTO VRB04KT 10SM CLR 20/12 A3033 RMK AO2 SLP259
T02000122 10211 20183 51013





000
SAUS41 KOKX 291152
MTRNYC
METAR KNYC 291151Z AUTO VRB04KT 10SM CLR 20/12 A3033 RMK AO2 SLP259
T02000122 10211 20183 51013





000
SAUS41 KOKX 291055
MTRMTP
METAR KMTP 291054Z AUTO 00000KT 16/13 A3028 RMK AO1 SLP255 T01610133





000
SAUS41 KOKX 291052
MTRNYC
METAR KNYC 291051Z AUTO VRB05KT 10SM CLR 19/12 A3032 RMK AO2 SLP258
T01890117





000
SAUS41 KOKX 290957 COR
MTRMTP
METAR KMTP 290954Z AUTO 00000KT 14/13 A3028 RMK AO1 SLP252 T01440128





000
SAUS41 KOKX 290956 COR
MTRMTP
METAR KMTP 290954Z AUTO 00000KT 14/13 A3028 RMK AO1 SLP252 T01440128





000
SAUS41 KOKX 290955
MTRMTP
METAR KMTP 290954Z AUTO 00000KT 14/13 A3028 RMK AO1 SLP252 T01440128





000
SAUS41 KOKX 290952
MTRNYC
METAR KNYC 290951Z AUTO VRB04KT 10SM CLR 18/12 A3030 RMK AO2 SLP251
T01830117





000
SAUS41 KOKX 290952
MTRNYC
METAR KNYC 290951Z AUTO VRB04KT 10SM CLR 18/12 A3030 RMK AO2 SLP251
T01830117





000
SAUS41 KOKX 290855
MTRMTP
METAR KMTP 290854Z AUTO 33003KT 16/13 A3027 RMK AO1 SLP249 T01560133
53009





000
SAUS41 KOKX 290855
MTRMTP
METAR KMTP 290854Z AUTO 33003KT 16/13 A3027 RMK AO1 SLP249 T01560133
53009





000
SAUS41 KOKX 290852
MTRNYC
METAR KNYC 290851Z AUTO VRB05KT 10SM CLR 19/12 A3029 RMK AO2 SLP246
T01890117 53001





000
SAUS41 KOKX 290755
MTRMTP
METAR KMTP 290754Z AUTO 32003KT 17/14 A3025 RMK AO1 SLP242 T01670144





000
SAUS41 KOKX 290755
MTRMTP
METAR KMTP 290754Z AUTO 32003KT 17/14 A3025 RMK AO1 SLP242 T01670144





000
SAUS41 KOKX 290752
MTRNYC
METAR KNYC 290751Z AUTO 36006KT 10SM CLR 19/12 A3028 RMK AO2 SLP245
T01940117





000
SAUS41 KOKX 290655
MTRMTP
METAR KMTP 290654Z AUTO 00000KT 17/15 A3024 RMK AO1 SLP241 T01670150





000
SAUS41 KOKX 290652
MTRNYC
METAR KNYC 290651Z AUTO 03007KT 010V070 10SM CLR 20/11 A3028 RMK AO2
SLP244 T02000111





000
SAUS41 KOKX 290555
MTRMTP
METAR KMTP 290554Z AUTO 00000KT 15/14 A3024 RMK AO1 SLP239 T01500139
10189 20150 50004





000
SAUS41 KOKX 290555
MTRMTP
METAR KMTP 290554Z AUTO 00000KT 15/14 A3024 RMK AO1 SLP239 T01500139
10189 20150 50004





000
SAUS41 KOKX 290553
MTRNYC
METAR KNYC 290551Z AUTO VRB06KT 10SM CLR 21/11 A3028 RMK AO2 SLP245
T02110111 10294 20211 51012





000
SAUS41 KOKX 290458 COR
MTRMTP
METAR KMTP 290454Z AUTO VRB03KT 16/14 A3024 RMK AO1 SLP240 T01610144
402060156





000
SAUS41 KOKX 290458 COR
MTRMTP
METAR KMTP 290454Z AUTO VRB03KT 16/14 A3024 RMK AO1 SLP240 T01610144
402060156





000
SAUS41 KOKX 290456 COR
MTRMTP
METAR KMTP 290454Z AUTO VRB03KT 16/14 A3024 RMK AO1 SLP240 T01610144
402060156





000
SAUS41 KOKX 290456 COR
MTRMTP
METAR KMTP 290454Z AUTO VRB03KT 16/14 A3024 RMK AO1 SLP240 T01610144
402060156





000
SAUS41 KOKX 290453
MTRNYC
METAR KNYC 290451Z AUTO 04008G17KT 360V080 10SM CLR 22/11 A3028 RMK
AO2 SLP242 T02220111 402940211





000
SAUS41 KOKX 290453
MTRNYC
METAR KNYC 290451Z AUTO 04008G17KT 360V080 10SM CLR 22/11 A3028 RMK
AO2 SLP242 T02220111 402940211





000
SAUS41 KOKX 290355
MTRMTP
METAR KMTP 290354Z AUTO 17003KT 17/16 A3024 RMK AO1 SLP238 T01670156





000
SAUS41 KOKX 290355
MTRMTP
METAR KMTP 290354Z AUTO 17003KT 17/16 A3024 RMK AO1 SLP238 T01670156





000
SAUS41 KOKX 290352
MTRNYC
METAR KNYC 290351Z AUTO 04009G14KT 10SM FEW065 23/13 A3027 RMK AO2
SLP239 T02330128





000
SAUS41 KOKX 290255
MTRMTP
METAR KMTP 290254Z AUTO 21003KT 18/17 A3023 RMK AO1 SLP236 T01830167
53014





000
SAUS41 KOKX 290255
MTRMTP
METAR KMTP 290254Z AUTO 21003KT 18/17 A3023 RMK AO1 SLP236 T01830167
53014





000
SAUS41 KOKX 290252
MTRNYC
METAR KNYC 290251Z AUTO VRB03KT 10SM CLR 24/12 A3025 RMK AO2 SLP233
T02440117 51027





000
SAUS41 KOKX 290155
MTRMTP
METAR KMTP 290154Z AUTO 21005KT 18/16 A3020 RMK AO1 SLP226 T01780161





000
SAUS41 KOKX 290152
MTRNYC
METAR KNYC 290151Z AUTO VRB05KT 10SM CLR 26/12 A3023 RMK AO2 SLP226
T02560117





000
SAUS41 KOKX 290055
MTRMTP
METAR KMTP 290054Z AUTO 20005KT 18/16 A3018 RMK AO1 SLP220 T01780156





000
SAUS41 KOKX 290055
MTRMTP
METAR KMTP 290054Z AUTO 20005KT 18/16 A3018 RMK AO1 SLP220 T01780156





000
SAUS41 KOKX 290052
MTRNYC
METAR KNYC 290051Z AUTO VRB03KT 10SM CLR 27/13 A3020 RMK AO2 SLP215
T02670128





000
SAUS41 KOKX 282355
MTRMTP
METAR KMTP 282354Z AUTO 22006KT 18/16 A3019 RMK AO1 SLP222 T01780156
10194 20172 53012





000
SAUS41 KOKX 282355
MTRMTP
METAR KMTP 282354Z AUTO 22006KT 18/16 A3019 RMK AO1 SLP222 T01780156
10194 20172 53012





000
SAUS41 KOKX 282353
MTRNYC
METAR KNYC 282351Z AUTO VRB03KT 10SM OVC070 29/12 A3017 RMK AO2
SLP206 T02940117 10294 20267 53013





000
SAUS41 KOKX 282255
MTRMTP
METAR KMTP 282254Z AUTO 20008KT 18/15 A3017 RMK AO1 SLP217 T01780150





000
SAUS41 KOKX 282255
MTRMTP
METAR KMTP 282254Z AUTO 20008KT 18/15 A3017 RMK AO1 SLP217 T01780150





000
SAUS41 KOKX 282253
MTRNYC
METAR KNYC 282251Z AUTO 00000KT 10SM CLR 28/19 A3015 RMK AO2 SLP199
T02830189





000
SAUS41 KOKX 282253
MTRNYC
METAR KNYC 282251Z AUTO 00000KT 10SM CLR 28/19 A3015 RMK AO2 SLP199
T02830189





000
SAUS41 KOKX 282155
MTRMTP
METAR KMTP 282154Z AUTO 20008G16KT 18/15 A3016 RMK AO1 SLP211
T01830150





000
SAUS41 KOKX 282152
MTRNYC
METAR KNYC 282151Z AUTO 00000KT 10SM FEW048 SCT060 28/19 A3014 RMK
AO2 SLP195 T02780194





000
SAUS41 KOKX 282055
MTRMTP
METAR KMTP 282054Z AUTO 20009G17KT 18/15 A3015 RMK AO1 SLP210
T01830150 56012





000
SAUS41 KOKX 282052
MTRNYC
METAR KNYC 282051Z AUTO VRB03KT 10SM FEW100 28/19 A3013 RMK AO2
SLP193 T02830189 58009





000
SAUS41 KOKX 281955
MTRMTP
METAR KMTP 281954Z AUTO 20009G16KT 18/15 A3017 RMK AO1 SLP214
T01830150





000
SAUS41 KOKX 281955
MTRMTP
METAR KMTP 281954Z AUTO 20009G16KT 18/15 A3017 RMK AO1 SLP214
T01830150





000
SAUS41 KOKX 281953
MTRNYC
METAR KNYC 281951Z AUTO VRB04KT 8SM FEW100 27/19 A3015 RMK AO2
SLP198 T02720189





000
SAUS41 KOKX 281855
MTRMTP
METAR KMTP 281854Z AUTO 20011G18KT 19/16 A3017 RMK AO1 SLP216
T01940156





000
SAUS41 KOKX 281852
MTRNYC
METAR KNYC 281851Z AUTO 17006KT 7SM SCT032 28/19 A3015 RMK AO2
SLP200 T02830194





000
SAUS41 KOKX 281852
MTRNYC
METAR KNYC 281851Z AUTO 17006KT 7SM SCT032 28/19 A3015 RMK AO2
SLP200 T02830194





000
SAUS41 KOKX 281755
MTRMTP
METAR KMTP 281754Z AUTO 19009G15KT 170V230 19/16 A3019 RMK AO1
SLP222 T01940156 10206 20167 58004





000
SAUS41 KOKX 281753
MTRNYC
METAR KNYC 281751Z AUTO VRB03KT 7SM FEW031 29/20 A3016 RMK AO2
SLP203 T02890200 10289 20222 57012





000
SAUS41 KOKX 281753
MTRNYC
METAR KNYC 281751Z AUTO VRB03KT 7SM FEW031 29/20 A3016 RMK AO2
SLP203 T02890200 10289 20222 57012





000
SAUS41 KOKX 281655
MTRMTP
METAR KMTP 281654Z AUTO 21007G14KT 19/16 A3021 RMK AO1 SLP228
T01940161





000
SAUS41 KOKX 281653
MTRNYC
METAR KNYC 281651Z AUTO VRB03KT 6SM HZ CLR 28/19 A3017 RMK AO2
SLP206 T02830194





000
SAUS41 KOKX 281602
MTRNYC

METAR KNYC 281551Z AUTO 00000KT 6SM HZ SCT017 27/20 A3018 RMK AO2
     SLP211 T02670200





000
SAUS41 KOKX 281602
MTRNYC

METAR KNYC 281551Z AUTO 00000KT 6SM HZ SCT017 27/20 A3018 RMK AO2
     SLP211 T02670200





000
SAUS41 KOKX 281555
MTRMTP
METAR KMTP 281554Z AUTO 20006KT 19/16 A3021 RMK AO1 SLP228 T01940156





000
SAUS41 KOKX 281552
MTRNYC
METAR KNYC 281551Z AUTO 00000KT 6SM HZ SCT017 27/20 A3018 RMK AO2
SLP211 T02670200





000
SAUS41 KOKX 281507
MTRNYC
SPECI KNYC 281506Z AUTO VRB04KT 6SM HZ BKN015 26/20 A3019 RMK AO2
T02560200





000
SAUS41 KOKX 281455
MTRMTP
METAR KMTP 281454Z AUTO 20010G17KT 19/16 A3020 RMK AO1 SLP226
T01940161 58003





000
SAUS41 KOKX 281453
MTRNYC
METAR KNYC 281451Z AUTO VRB04KT 6SM HZ BKN012 25/20 A3019 RMK AO2
SLP214 T02500200 50003





000
SAUS41 KOKX 281453
MTRNYC
METAR KNYC 281451Z AUTO VRB04KT 6SM HZ BKN012 25/20 A3019 RMK AO2
SLP214 T02500200 50003





000
SAUS41 KOKX 281355
MTRMTP
METAR KMTP 281354Z AUTO 21008G15KT 18/15 A3022 RMK AO1 SLP231
T01780150





000
SAUS41 KOKX 281355
MTRMTP
METAR KMTP 281354Z AUTO 21008G15KT 18/15 A3022 RMK AO1 SLP231
T01780150





000
SAUS41 KOKX 281353
MTRNYC
METAR KNYC 281351Z AUTO 00000KT 4SM HZ OVC012 23/19 A3020 RMK AO2
SLP217 T02280194





000
SAUS41 KOKX 281255
MTRMTP
METAR KMTP 281254Z AUTO 20008KT 17/15 A3022 RMK AO1 SLP233 T01670150





000
SAUS41 KOKX 281255
MTRMTP
METAR KMTP 281254Z AUTO 20008KT 17/15 A3022 RMK AO1 SLP233 T01670150





000
SAUS41 KOKX 281253
MTRNYC
METAR KNYC 281251Z AUTO 13003KT 7SM OVC013 23/17 A3020 RMK AO2
SLP216 T02280172





000
SAUS41 KOKX 281253
MTRNYC
METAR KNYC 281251Z AUTO 13003KT 7SM OVC013 23/17 A3020 RMK AO2
SLP216 T02280172





000
SAUS41 KOKX 281230
MTRNYC
SPECI KNYC 281228Z AUTO VRB03KT 6SM HZ BKN011 23/19 A3019 RMK AO2
T02330194





000
SAUS41 KOKX 281230
MTRNYC
SPECI KNYC 281228Z AUTO VRB03KT 6SM HZ BKN011 23/19 A3019 RMK AO2
T02330194





000
SAUS41 KOKX 281155
MTRMTP
METAR KMTP 281154Z AUTO 20009G15KT 17/15 A3021 RMK AO1 SLP229 P0011
60011 70011 T01670150 10172 20156 51013





000
SAUS41 KOKX 281155
MTRMTP
METAR KMTP 281154Z AUTO 20009G15KT 17/15 A3021 RMK AO1 SLP229 P0011
60011 70011 T01670150 10172 20156 51013





000
SAUS41 KOKX 281153
MTRNYC
METAR KNYC 281151Z AUTO VRB03KT 5SM HZ OVC009 22/19 A3019 RMK AO2
SLP212 70008 T02220194 10222 20211 51009





000
SAUS41 KOKX 281153
MTRNYC
METAR KNYC 281151Z AUTO VRB03KT 5SM HZ OVC009 22/19 A3019 RMK AO2
SLP212 70008 T02220194 10222 20211 51009





000
SAUS41 KOKX 281102
MTRNYC
SPECI KNYC 281100Z AUTO 27003KT 6SM HZ OVC009 22/19 A3018 RMK AO2
T02220189





000
SAUS41 KOKX 281102
MTRNYC
SPECI KNYC 281100Z AUTO 27003KT 6SM HZ OVC009 22/19 A3018 RMK AO2
T02220189





000
SAUS41 KOKX 281055
MTRMTP
METAR KMTP 281054Z AUTO 20007KT 17/14 A3020 RMK AO1 SLP228 T01670144





000
SAUS41 KOKX 281053
MTRNYC
METAR KNYC 281051Z AUTO 25004KT 6SM HZ OVC010 22/19 A3018 RMK AO2
SLP210 T02170189





000
SAUS41 KOKX 281053
MTRNYC
METAR KNYC 281051Z AUTO 25004KT 6SM HZ OVC010 22/19 A3018 RMK AO2
SLP210 T02170189





000
SAUS41 KOKX 280955
MTRMTP
METAR KMTP 280954Z AUTO 20008G14KT 17/15 A3019 RMK AO1 SLP222
T01720150





000
SAUS41 KOKX 280953
MTRNYC
METAR KNYC 280951Z AUTO VRB03KT 7SM OVC011 22/19 A3017 RMK AO2
SLP205 T02170189





000
SAUS41 KOKX 280914
MTRNYC
SPECI KNYC 280913Z AUTO VRB03KT 10SM BKN012 22/18 A3016 RMK AO2
T02170183





000
SAUS41 KOKX 280855
MTRMTP
METAR KMTP 280854Z AUTO 21010G17KT 17/14 A3017 RMK AO1 SLP217
T01720144 50000





000
SAUS41 KOKX 280855
MTRMTP
METAR KMTP 280854Z AUTO 21010G17KT 17/14 A3017 RMK AO1 SLP217
T01720144 50000





000
SAUS41 KOKX 280852
MTRNYC
METAR KNYC 280851Z AUTO 26003KT 10SM CLR 22/18 A3016 RMK AO2 SLP202
T02170183 53002





000
SAUS41 KOKX 280755
MTRMTP
METAR KMTP 280754Z AUTO 21007KT 17/14 A3018 RMK AO1 SLP220 T01670144





000
SAUS41 KOKX 280753
MTRNYC
METAR KNYC 280751Z AUTO VRB05KT 9SM FEW100 21/19 A3015 RMK AO2
SLP200 T02110189





000
SAUS41 KOKX 280655
MTRMTP
METAR KMTP 280654Z AUTO 20007KT 16/14 A3018 RMK AO1 SLP218 T01610144





000
SAUS41 KOKX 280653
MTRNYC
METAR KNYC 280651Z AUTO 25005KT 9SM SCT100 22/19 A3015 RMK AO2
SLP199 T02170189





000
SAUS41 KOKX 280653
MTRNYC
METAR KNYC 280651Z AUTO 25005KT 9SM SCT100 22/19 A3015 RMK AO2
SLP199 T02170189





000
SAUS41 KOKX 280555
MTRMTP
METAR KMTP 280554Z AUTO VRB06KT 16/14 A3017 RMK AO1 SLP216 T01560139
10172 20156 58012





000
SAUS41 KOKX 280555
MTRMTP
METAR KMTP 280554Z AUTO VRB06KT 16/14 A3017 RMK AO1 SLP216 T01560139
10172 20156 58012





000
SAUS41 KOKX 280553
MTRNYC
METAR KNYC 280551Z AUTO 26005KT 9SM CLR 22/19 A3015 RMK AO2 SLP200
60008 T02170189 10239 20211 56005





000
SAUS41 KOKX 280456
MTRMTP
METAR KMTP 280454Z AUTO 20008KT 16/14 A3018 RMK AO1 SLP219 T01610139
402000156





000
SAUS41 KOKX 280452
MTRNYC
METAR KNYC 280451Z AUTO 24004KT 7SM CLR 22/19 A3016 RMK AO2 SLP201
T02170189 402940211





000
SAUS41 KOKX 280355
MTRMTP
METAR KMTP 280354Z AUTO 18006KT 16/14 A3020 RMK AO1 SLP226 T01610139





000
SAUS41 KOKX 280352
MTRNYC
METAR KNYC 280351Z AUTO 21003KT 9SM CLR 22/19 A3016 RMK AO2 SLP203
T02170194





000
SAUS41 KOKX 280255
MTRMTP
METAR KMTP 280254Z AUTO 20006KT 17/14 A3021 RMK AO1 SLP228 T01670144
51002





000
SAUS41 KOKX 280253
MTRNYC
METAR KNYC 280251Z AUTO VRB03KT 6SM BR CLR 22/19 A3017 RMK AO2
RAB0153E06 SLP206 P0003 60008 T02170194 50003





000
SAUS41 KOKX 280155
MTRMTP
METAR KMTP 280154Z AUTO 20007KT 17/14 A3021 RMK AO1 SLP228 T01720144





000
SAUS41 KOKX 280153
MTRNYC
METAR KNYC 280151Z AUTO 26005KT 8SM SCT055 BKN080 22/20 A3017 RMK
AO2 RAE0056 SLP207 P0000 T02220200





000
SAUS41 KOKX 280055
MTRMTP
METAR KMTP 280054Z AUTO 20008G16KT 17/14 A3021 RMK AO1 SLP229
T01720144





000
SAUS41 KOKX 280055
MTRMTP
METAR KMTP 280054Z AUTO 20008G16KT 17/14 A3021 RMK AO1 SLP229
T01720144





000
SAUS41 KOKX 280052
MTRNYC
METAR KNYC 280051Z AUTO 22003KT 8SM -RA BKN110 22/19 A3017 RMK AO2
SLP206 P0005 T02170194





000
SAUS41 KOKX 272355
MTRMTP
METAR KMTP 272354Z AUTO 20008G18KT 17/14 A3020 RMK AO1 SLP227
T01720144 10200 20172 53005





000
SAUS41 KOKX 272355
MTRMTP
METAR KMTP 272354Z AUTO 20008G18KT 17/14 A3020 RMK AO1 SLP227
T01720144 10200 20172 53005





000
SAUS41 KOKX 272352
MTRNYC
METAR KNYC 272351Z AUTO 00000KT 9SM -RA FEW038 FEW070 BKN110 24/18
A3016 RMK AO2 RAB14 SLP203 P0000 60000 T02390178 10294 20233 53017





000
SAUS41 KOKX 272255
MTRMTP
METAR KMTP 272254Z AUTO 19010G18KT 18/14 A3018 RMK AO1 SLP218
T01780144





000
SAUS41 KOKX 272253
MTRNYC
METAR KNYC 272251Z AUTO VRB04KT 9SM FEW035 FEW048 BKN110 24/17 A3014
RMK AO2 PRESRR SLP197 T02440167





000
SAUS41 KOKX 272155
MTRMTP
METAR KMTP 272154Z AUTO 19009G19KT 18/14 A3018 RMK AO1 SLP219
T01830144





000
SAUS41 KOKX 272152
MTRNYC
METAR KNYC 272151Z AUTO 9SM CLR 26/17 A3009 RMK AO2 SLP181 T02610172





000
SAUS41 KOKX 272055
MTRMTP
METAR KMTP 272054Z AUTO 20009G20KT 170V230 19/15 A3019 RMK AO1
SLP221 T01890150 58007





000
SAUS41 KOKX 272055
MTRMTP
METAR KMTP 272054Z AUTO 20009G20KT 170V230 19/15 A3019 RMK AO1
SLP221 T01890150 58007





000
SAUS41 KOKX 272052
MTRNYC
METAR KNYC 272051Z AUTO VRB03KT 9SM CLR 26/17 A3011 RMK AO2 SLP186
T02610172 56017





000
SAUS41 KOKX 271955
MTRMTP
METAR KMTP 271954Z AUTO 20012G21KT 19/15 A3019 RMK AO1 SLP223
T01890150





000
SAUS41 KOKX 271952
MTRNYC
METAR KNYC 271951Z AUTO 16009G18KT 9SM CLR 27/18 A3012 RMK AO2
SLP190 T02670178





000
SAUS41 KOKX 271952
MTRNYC
METAR KNYC 271951Z AUTO 16009G18KT 9SM CLR 27/18 A3012 RMK AO2
SLP190 T02670178





000
SAUS41 KOKX 271855
MTRMTP
METAR KMTP 271854Z AUTO 20010G19KT 19/16 A3021 RMK AO1 SLP229
T01940156





000
SAUS41 KOKX 271853
MTRNYC
METAR KNYC 271851Z AUTO VRB06G16KT 8SM CLR 27/18 A3014 RMK AO2
SLP195 T02720183





000
SAUS41 KOKX 271853
MTRNYC
METAR KNYC 271851Z AUTO VRB06G16KT 8SM CLR 27/18 A3014 RMK AO2
SLP195 T02720183





000
SAUS41 KOKX 271756
MTRMTP
METAR KMTP 271754Z AUTO 20011G19KT 19/16 A3021 RMK AO1 SLP229
T01940156 10194 20167 58010





000
SAUS41 KOKX 271753
MTRNYC
METAR KNYC 271751Z AUTO 00000KT 9SM CLR 29/19 A3016 RMK AO2 SLP203
T02890194 10289 20228 58013





000
SAUS41 KOKX 271708
MTRNYC
SPECI KNYC 271707Z AUTO 8SM FEW025 28/18 A3018 RMK AO2 T02780183





000
SAUS41 KOKX 271656
MTRMTP
METAR KMTP 271654Z AUTO 20011G19KT 19/15 A3023 RMK AO1 SLP235
T01890150





000
SAUS41 KOKX 271656
MTRMTP
METAR KMTP 271654Z AUTO 20011G19KT 19/15 A3023 RMK AO1 SLP235
T01890150





000
SAUS41 KOKX 271653
MTRNYC
METAR KNYC 271651Z AUTO 8SM BKN026 27/19 A3018 RMK AO2 SLP210
T02720189





000
SAUS41 KOKX 271555
MTRMTP
METAR KMTP 271554Z AUTO 20011G20KT 19/15 A3023 RMK AO1 SLP237
T01890150





000
SAUS41 KOKX 271552
MTRNYC
METAR KNYC 271551Z AUTO 7SM OVC021 25/19 A3020 RMK AO2 SLP215
T02500194





000
SAUS41 KOKX 271455
MTRMTP
METAR KMTP 271454Z AUTO 21011G21KT 18/15 A3024 RMK AO1 SLP239
T01830150 53002





000
SAUS41 KOKX 271455
MTRMTP
METAR KMTP 271454Z AUTO 21011G21KT 18/15 A3024 RMK AO1 SLP239
T01830150 53002





000
SAUS41 KOKX 271453
MTRNYC
METAR KNYC 271451Z AUTO VRB03KT 8SM BKN022 26/19 A3020 RMK AO2
SLP216 T02610194 57000





000
SAUS41 KOKX 271445
MTRNYC
SPECI KNYC 271443Z AUTO 25005KT 7SM SCT020 26/19 A3020 RMK AO2
T02610189





000
SAUS41 KOKX 271355
MTRMTP
METAR KMTP 271354Z AUTO 19009G16KT 18/15 A3023 RMK AO1 SLP236
T01830150





000
SAUS41 KOKX 271355
MTRMTP
METAR KMTP 271354Z AUTO 19009G16KT 18/15 A3023 RMK AO1 SLP236
T01830150





000
SAUS41 KOKX 271352
MTRNYC
METAR KNYC 271351Z AUTO VRB05KT 8SM OVC016 24/19 A3020 RMK AO2
SLP216 T02440189





000
SAUS41 KOKX 271345
MTRNYC
SPECI KNYC 271344Z AUTO 26003KT 8SM OVC016 24/19 A3020 RMK AO2
T02440189





000
SAUS41 KOKX 271255
MTRMTP
METAR KMTP 271254Z AUTO 21009G14KT 18/15 A3024 RMK AO1 SLP239
T01780150





000
SAUS41 KOKX 271255
MTRMTP
METAR KMTP 271254Z AUTO 21009G14KT 18/15 A3024 RMK AO1 SLP239
T01780150





000
SAUS41 KOKX 271252
MTRNYC
METAR KNYC 271251Z AUTO 23008KT 200V270 7SM OVC013 23/18 A3020 RMK
AO2 SLP217 T02330183





000
SAUS41 KOKX 271252
MTRNYC
METAR KNYC 271251Z AUTO 23008KT 200V270 7SM OVC013 23/18 A3020 RMK
AO2 SLP217 T02330183





000
SAUS41 KOKX 271155
MTRMTP
METAR KMTP 271154Z AUTO 20007G15KT 17/14 A3023 RMK AO1 SLP237
T01670144 10178 20156 51009





000
SAUS41 KOKX 271155
MTRMTP
METAR KMTP 271154Z AUTO 20007G15KT 17/14 A3023 RMK AO1 SLP237
T01670144 10178 20156 51009





000
SAUS41 KOKX 271152
MTRNYC
METAR KNYC 271151Z AUTO VRB06KT 7SM OVC012 23/18 A3020 RMK AO2
SLP217 T02280178 10228 20217 51008





000
SAUS41 KOKX 271119
MTRNYC
SPECI KNYC 271118Z AUTO VRB05KT 9SM BKN012 22/18 A3020 RMK AO2
T02220178





000
SAUS41 KOKX 271119
MTRNYC
SPECI KNYC 271118Z AUTO VRB05KT 9SM BKN012 22/18 A3020 RMK AO2
T02220178





000
SAUS41 KOKX 271055
MTRMTP
METAR KMTP 271054Z AUTO 20008KT 16/14 A3022 RMK AO1 SLP234 T01610139





000
SAUS41 KOKX 271055
MTRMTP
METAR KMTP 271054Z AUTO 20008KT 16/14 A3022 RMK AO1 SLP234 T01610139





000
SAUS41 KOKX 271052
MTRNYC
METAR KNYC 271051Z AUTO VRB03KT 8SM SCT013 22/18 A3019 RMK AO2
SLP214 T02220178





000
SAUS41 KOKX 270955
MTRMTP
METAR KMTP 270954Z AUTO 20008G18KT 16/14 A3021 RMK AO1 SLP231
T01610139





000
SAUS41 KOKX 270953
MTRNYC
METAR KNYC 270951Z AUTO 23007KT 9SM CLR 22/17 A3019 RMK AO2 SLP213
T02170172





000
SAUS41 KOKX 270953
MTRNYC
METAR KNYC 270951Z AUTO 23007KT 9SM CLR 22/17 A3019 RMK AO2 SLP213
T02170172





000
SAUS41 KOKX 270855
MTRMTP
METAR KMTP 270854Z AUTO 20008KT 16/14 A3021 RMK AO1 SLP228 T01610139
55004





000
SAUS41 KOKX 270855
MTRMTP
METAR KMTP 270854Z AUTO 20008KT 16/14 A3021 RMK AO1 SLP228 T01610139
55004





000
SAUS41 KOKX 270852
MTRNYC
METAR KNYC 270851Z AUTO 24005KT 10SM CLR 22/17 A3018 RMK AO2 SLP209
T02170167 55002





000
SAUS41 KOKX 270755
MTRMTP
METAR KMTP 270754Z AUTO 20009KT 16/14 A3020 RMK AO1 SLP228 T01610139





000
SAUS41 KOKX 270753
MTRNYC
METAR KNYC 270751Z AUTO 23007KT 190V250 10SM CLR 22/17 A3017 RMK AO2
SLP207 T02170167





000
SAUS41 KOKX 270655
MTRMTP
METAR KMTP 270654Z AUTO 20008KT 17/14 A3021 RMK AO1 SLP230 T01670144





000
SAUS41 KOKX 270655
MTRMTP
METAR KMTP 270654Z AUTO 20008KT 17/14 A3021 RMK AO1 SLP230 T01670144





000
SAUS41 KOKX 270653
MTRNYC
METAR KNYC 270651Z AUTO 24005KT 10SM BKN050 22/16 A3018 RMK AO2
SLP210 T02220161





000
SAUS41 KOKX 270555
MTRMTP
METAR KMTP 270554Z AUTO 21008G16KT 18/15 A3022 RMK AO1 SLP231
T01780150 10183 20150 58001





000
SAUS41 KOKX 270553
MTRNYC
METAR KNYC 270551Z AUTO VRB04KT 10SM SCT050 22/16 A3018 RMK AO2
SLP211 T02220156 10250 20222 58000





000
SAUS41 KOKX 270553
MTRNYC
METAR KNYC 270551Z AUTO VRB04KT 10SM SCT050 22/16 A3018 RMK AO2
SLP211 T02220156 10250 20222 58000





000
SAUS41 KOKX 270455
MTRMTP
METAR KMTP 270454Z AUTO 22009G18KT 18/15 A3022 RMK AO1 SLP232
T01780150 402110144





000
SAUS41 KOKX 270453
MTRNYC
METAR KNYC 270451Z AUTO VRB05G15KT 10SM CLR 23/16 A3019 RMK AO2
SLP213 T02280161 403110194





000
SAUS41 KOKX 270355
MTRMTP
METAR KMTP 270354Z AUTO 21008G14KT 16/14 A3023 RMK AO1 SLP235
T01610144





000
SAUS41 KOKX 270352
MTRNYC
METAR KNYC 270351Z AUTO VRB04KT 10SM CLR 23/16 A3019 RMK AO2 SLP213
T02330161





000
SAUS41 KOKX 270255
MTRMTP
METAR KMTP 270254Z AUTO 20007KT 16/13 A3022 RMK AO1 SLP233 T01560133
53002





000
SAUS41 KOKX 270255
MTRMTP
METAR KMTP 270254Z AUTO 20007KT 16/13 A3022 RMK AO1 SLP233 T01560133
53002





000
SAUS41 KOKX 270252
MTRNYC
METAR KNYC 270251Z AUTO 25007KT 200V280 10SM CLR 24/16 A3019 RMK AO2
SLP211 T02390156 53010





000
SAUS41 KOKX 270155
MTRMTP
METAR KMTP 270154Z AUTO 19008KT 16/13 A3022 RMK AO1 SLP232 T01610133





000
SAUS41 KOKX 270155
MTRMTP
METAR KMTP 270154Z AUTO 19008KT 16/13 A3022 RMK AO1 SLP232 T01610133





000
SAUS41 KOKX 270152
MTRNYC
METAR KNYC 270151Z AUTO VRB05KT 10SM CLR 24/16 A3018 RMK AO2 SLP208
T02440161





000
SAUS41 KOKX 270055
MTRMTP
METAR KMTP 270054Z AUTO 21008KT 17/14 A3021 RMK AO1 SLP230 T01720139





000
SAUS41 KOKX 270055
MTRMTP
METAR KMTP 270054Z AUTO 21008KT 17/14 A3021 RMK AO1 SLP230 T01720139





000
SAUS41 KOKX 270053
MTRNYC
METAR KNYC 270051Z AUTO VRB04KT 10SM CLR 24/16 A3016 RMK AO2 SLP202
T02440161





000
SAUS41 KOKX 270053
MTRNYC
METAR KNYC 270051Z AUTO VRB04KT 10SM CLR 24/16 A3016 RMK AO2 SLP202
T02440161





000
SAUS41 KOKX 262355
MTRMTP
METAR KMTP 262354Z AUTO 20008G15KT 18/14 A3021 RMK AO1 SLP230
T01830144 10211 20183 55000





000
SAUS41 KOKX 262353
MTRNYC
METAR KNYC 262351Z AUTO VRB03KT 10SM CLR 26/16 A3015 RMK AO2 SLP202
T02560161 10311 20256 56006





000
SAUS41 KOKX 262255
MTRMTP
METAR KMTP 262254Z AUTO 22010G19KT 19/15 A3020 RMK AO1 SLP228
T01940150





000
SAUS41 KOKX 262252
MTRNYC
METAR KNYC 262251Z AUTO VRB03KT 10SM CLR 27/16 A3015 RMK AO2 SLP201
T02670161





    US Dept of Commerce
    National Oceanic and Atmospheric Administration
    National Weather Service
    1325 East West Highway
    Silver Spring, MD 20910
    Page Author: NWS Internet Services Team
Disclaimer
Information Quality
Credits
Glossary
Privacy Policy
Freedom of Information Act (FOIA)
About Us
Career Opportunities